Ubon Ratchathani Airport
VTUU : now visible

Airfield :











YOU CAN JOIN US ON...

 
LOGIN :

Register | Disclaimer

   EN    FR    IT 

 









Legend :    VFR   Marginal VFR   IFR   Intensive IFR   Very Intensive IFR
Visi :
Ceiling :
>= 8 km
>= 3000ft
5 to 8 km
1000 to 3000 ft
1500m to 5 km
500 to 1000 ft
800 to 1500m
200 to 500 ft
< 800m
< 200 ft
Symbols :   Thunderstorms  Fog  Heavy snow  Heavy precipitations  Wind > 20 kt






- Airport Elevation : 406 ft
- IATA code : UBP


VTUU - Ubon Ratchathani

CURRENT METAR :
  • 021600Z 00000KT 9000 FEW030 26/24 Q1011 NOSIG

EXPIRED METARs :
  • 021500Z 03004KT 350V080 9000 FEW030 27/24 Q1011 NOSIG
  • 021400Z VRB02KT 9000 FEW030 28/23 Q1011 NOSIG

TAF TAF VTUU
Valid from the 02 at 12:00 until the 03 at 12:00 UTC


021100Z 0212/0312 18006KT 8000 FEW030



MET'MAP, your aeronautical weather chart ! - Copyright ORBIFLY December 2007 - Disclaimer

ORBIFLY MET'MAP TEAM :

Programming & Development : Alexandra Zaïnal
Concept & original design : Baudouin d'Aumeries
Assistance for programming : Marc-Olivier Méhu
Technical & hardware support : Manuel Goepfert

Contact : metmap@orbifly.com




SOURCES & CREDITS :

   NOAA       Earth
Advisory